createdAt,value
2017-05-15T00:00:28.453Z,7.58
2017-05-15T00:02:55.453Z,8.90
2017-05-15T00:05:22.449Z,9.60
2017-05-15T00:07:50.255Z,9.30
2017-05-15T00:10:17.284Z,9.42
2017-05-15T00:12:44.305Z,11.48
2017-05-15T00:15:11.316Z,10.40
2017-05-15T00:17:39.093Z,11.46
2017-05-15T00:20:06.524Z,12.72
2017-05-15T00:22:33.537Z,12.24
2017-05-15T00:25:00.555Z,12.06
2017-05-15T00:27:27.569Z,12.02
2017-05-15T00:29:54.576Z,10.32
2017-05-15T00:32:21.962Z,10.10
2017-05-15T00:34:48.989Z,11.10
2017-05-15T00:37:16.003Z,10.22
2017-05-15T00:39:43.049Z,10.02
2017-05-15T00:42:10.057Z,10.80
2017-05-15T00:44:37.506Z,10.40
2017-05-15T00:47:04.524Z,10.04
2017-05-15T00:49:31.553Z,10.12
2017-05-15T00:51:58.584Z,10.62
2017-05-15T00:54:25.581Z,10.38
2017-05-15T00:56:52.909Z,10.52
2017-05-15T00:59:19.962Z,10.48
2017-05-15T01:01:47.050Z,10.28
2017-05-15T01:04:14.513Z,9.98
2017-05-15T01:06:42.294Z,10.02
2017-05-15T01:09:10.205Z,9.80
2017-05-15T01:11:37.289Z,9.94
2017-05-15T01:14:05.040Z,8.88
2017-05-15T01:16:32.520Z,10.18
2017-05-15T01:19:00.247Z,9.78
2017-05-15T01:21:29.209Z,9.54
2017-05-15T01:23:56.243Z,10.06
2017-05-15T01:26:24.001Z,11.26
2017-05-15T01:28:52.103Z,10.70
2017-05-15T01:31:19.147Z,9.76
2017-05-15T01:33:46.172Z,11.60
2017-05-15T01:36:13.209Z,10.92
2017-05-15T01:38:41.005Z,10.78
2017-05-15T01:41:08.403Z,11.40
2017-05-15T01:43:35.420Z,13.42
2017-05-15T01:46:02.469Z,13.40
2017-05-15T01:48:29.492Z,13.00
2017-05-15T01:50:56.580Z,13.66
2017-05-15T01:53:23.965Z,13.32
2017-05-15T01:55:51.755Z,14.48
2017-05-15T01:58:18.783Z,15.92
2017-05-15T02:00:45.793Z,17.72
2017-05-15T02:03:12.819Z,17.74
2017-05-15T02:05:40.204Z,16.12
2017-05-15T02:08:07.595Z,14.04
2017-05-15T02:10:34.704Z,17.20
2017-05-15T02:13:01.746Z,19.28
2017-05-15T02:15:28.776Z,19.48
2017-05-15T02:17:56.182Z,28.66
2017-05-15T02:20:23.210Z,30.80
2017-05-15T02:22:50.240Z,23.30
2017-05-15T02:25:17.316Z,44.42
2017-05-15T02:27:44.379Z,29.06
2017-05-15T02:30:12.552Z,28.58
2017-05-15T02:32:40.320Z,29.66
2017-05-15T02:35:07.343Z,46.34
2017-05-15T02:37:34.379Z,37.30
2017-05-15T02:40:01.430Z,33.78
2017-05-15T02:42:28.920Z,32.94
2017-05-15T02:44:56.692Z,32.52
2017-05-15T02:47:23.730Z,32.06
2017-05-15T02:49:51.524Z,25.82
2017-05-15T02:52:18.544Z,33.96
2017-05-15T02:54:46.001Z,34.86
2017-05-15T02:57:13.048Z,31.92
2017-05-15T02:59:40.854Z,33.50
2017-05-15T03:02:07.909Z,28.98
2017-05-15T03:04:34.897Z,29.84
2017-05-15T03:07:02.369Z,31.48
2017-05-15T03:09:29.377Z,30.28
2017-05-15T03:11:56.573Z,31.86
2017-05-15T03:14:24.435Z,31.42
2017-05-15T03:16:52.205Z,31.02
2017-05-15T03:19:20.258Z,31.42
2017-05-15T03:21:47.304Z,31.98
2017-05-15T03:24:14.341Z,33.94
2017-05-15T03:26:41.519Z,33.36
2017-05-15T03:29:09.318Z,37.16
2017-05-15T03:31:36.723Z,41.02
2017-05-15T03:34:03.775Z,39.48
2017-05-15T03:36:30.820Z,36.34
2017-05-15T03:38:57.871Z,38.18
2017-05-15T03:41:24.929Z,38.16
2017-05-15T03:43:52.494Z,38.32
2017-05-15T03:46:20.338Z,39.62
2017-05-15T03:48:47.412Z,39.90
2017-05-15T03:51:14.476Z,39.36
2017-05-15T03:53:42.221Z,39.32
2017-05-15T03:56:10.359Z,41.38
2017-05-15T03:58:37.392Z,42.32
2017-05-15T04:01:04.415Z,42.68
2017-05-15T04:03:31.496Z,43.98
2017-05-15T04:05:58.536Z,41.32
2017-05-15T04:08:25.589Z,41.36
2017-05-15T04:10:52.633Z,41.80
2017-05-15T04:13:19.665Z,41.54
2017-05-15T04:15:47.025Z,43.84
2017-05-15T04:18:14.040Z,43.56
2017-05-15T04:20:41.896Z,43.14
2017-05-15T04:23:08.948Z,42.78
2017-05-15T04:25:36.004Z,43.36
2017-05-15T04:28:04.158Z,48.84
2017-05-15T04:30:31.209Z,45.36
2017-05-15T04:32:58.241Z,45.52
2017-05-15T04:35:25.276Z,48.44
2017-05-15T04:37:52.311Z,42.68
2017-05-15T04:40:19.724Z,45.46
2017-05-15T04:42:46.774Z,46.12
2017-05-15T04:45:13.784Z,40.74
2017-05-15T04:47:40.833Z,43.08
2017-05-15T04:50:07.873Z,44.82
2017-05-15T04:52:35.353Z,43.96
2017-05-15T04:55:02.372Z,45.68
2017-05-15T04:57:29.400Z,44.52
2017-05-15T04:59:56.451Z,43.06
2017-05-15T05:02:23.472Z,42.68
2017-05-15T05:04:51.014Z,40.98
2017-05-15T05:07:18.052Z,38.26
2017-05-15T05:09:45.064Z,41.94
2017-05-15T05:12:12.101Z,39.78
2017-05-15T05:14:39.128Z,40.98
2017-05-15T05:17:06.548Z,39.00
2017-05-15T05:19:40.738Z,40.20
2017-05-15T05:22:11.088Z,37.44
2017-05-15T05:24:53.121Z,37.02
2017-05-15T05:27:32.834Z,34.72
2017-05-15T05:30:09.018Z,36.66
2017-05-15T05:32:47.335Z,36.48
2017-05-15T05:35:16.073Z,38.56
2017-05-15T05:38:07.613Z,35.84
2017-05-15T05:40:40.562Z,38.88
2017-05-15T05:43:17.480Z,36.44
2017-05-15T05:45:45.304Z,36.32
2017-05-15T05:48:12.354Z,37.30
2017-05-15T05:50:39.884Z,38.46
2017-05-15T05:53:07.677Z,38.50
2017-05-15T05:55:47.584Z,37.70
2017-05-15T05:58:16.443Z,39.48
2017-05-15T06:00:53.037Z,38.28
2017-05-15T06:03:44.140Z,38.60
2017-05-15T06:06:23.790Z,35.50
2017-05-15T06:09:03.235Z,39.62
2017-05-15T06:11:43.809Z,41.92
2017-05-15T06:14:24.064Z,37.86
2017-05-15T06:17:03.688Z,33.52
2017-05-15T06:19:30.569Z,31.86
2017-05-15T06:21:58.342Z,29.98
2017-05-15T06:24:46.975Z,31.30
2017-05-15T06:27:13.992Z,30.94
2017-05-15T06:29:40.976Z,30.72
2017-05-15T06:32:09.066Z,29.34
2017-05-15T06:34:36.087Z,32.58
2017-05-15T06:37:03.126Z,29.40
2017-05-15T06:39:43.696Z,27.18
2017-05-15T06:42:23.237Z,27.54
2017-05-15T06:44:50.890Z,24.30
2017-05-15T06:47:17.873Z,23.74
2017-05-15T06:49:45.576Z,22.70
2017-05-15T06:52:12.656Z,19.54
2017-05-15T06:54:39.607Z,19.94
2017-05-15T06:57:06.952Z,18.54
2017-05-15T06:59:33.942Z,19.56
2017-05-15T07:02:00.947Z,19.28
2017-05-15T07:04:28.709Z,17.12
2017-05-15T07:06:55.587Z,16.74
2017-05-15T07:09:22.674Z,19.46
2017-05-15T07:11:49.705Z,21.52
2017-05-15T07:14:17.316Z,19.42
2017-05-15T07:16:45.094Z,20.00
2017-05-15T07:19:12.153Z,17.74
2017-05-15T07:21:39.342Z,15.02
2017-05-15T07:24:06.427Z,15.72
2017-05-15T07:26:34.603Z,12.42
2017-05-15T07:29:02.425Z,12.98
2017-05-15T07:31:29.456Z,13.20
2017-05-15T07:33:57.305Z,12.40
2017-05-15T07:36:24.685Z,14.10
2017-05-15T07:38:51.734Z,14.28
2017-05-15T07:41:19.112Z,14.20
2017-05-15T07:43:46.169Z,13.34
2017-05-15T07:46:13.376Z,13.50
2017-05-15T07:48:40.404Z,13.70
2017-05-15T07:51:07.429Z,13.98
2017-05-15T07:53:35.084Z,12.52
2017-05-15T07:56:02.130Z,10.04
2017-05-15T07:58:29.999Z,9.98
2017-05-15T08:00:57.050Z,10.56
2017-05-15T08:03:24.819Z,11.40
2017-05-15T08:05:52.976Z,11.72
2017-05-15T08:08:20.778Z,11.92
2017-05-15T08:10:47.863Z,11.14
2017-05-15T08:13:14.916Z,11.10
2017-05-15T08:15:41.934Z,10.78
2017-05-15T08:18:09.357Z,12.16
2017-05-15T08:20:36.349Z,11.08
2017-05-15T08:23:03.412Z,13.16
2017-05-15T08:25:30.428Z,13.08
2017-05-15T08:27:57.588Z,12.18
2017-05-15T08:30:24.995Z,12.60
2017-05-15T08:32:52.033Z,11.42
2017-05-15T08:35:19.079Z,11.78
2017-05-15T08:37:46.155Z,14.16
2017-05-15T08:40:13.920Z,11.80
2017-05-15T08:42:42.069Z,12.94
2017-05-15T08:45:09.204Z,11.74
2017-05-15T08:47:37.020Z,11.12
2017-05-15T08:50:04.076Z,11.30
2017-05-15T08:52:31.168Z,11.18
2017-05-15T08:54:58.659Z,10.74
2017-05-15T08:57:25.704Z,11.40
2017-05-15T08:59:53.359Z,9.22
2017-05-15T09:02:20.365Z,10.08
2017-05-15T09:04:48.211Z,10.38
2017-05-15T09:07:15.723Z,9.32
2017-05-15T09:09:43.534Z,9.52
2017-05-15T09:12:10.557Z,9.56
2017-05-15T09:14:37.603Z,9.30
2017-05-15T09:17:04.636Z,7.32
2017-05-15T09:19:32.802Z,7.76
2017-05-15T09:22:00.582Z,7.78
2017-05-15T09:24:27.626Z,7.32
2017-05-15T09:26:55.408Z,7.10
2017-05-15T09:29:22.487Z,7.12
2017-05-15T09:31:50.615Z,8.44
2017-05-15T09:34:18.464Z,8.76
2017-05-15T09:36:46.244Z,7.50
2017-05-15T09:39:13.380Z,6.86
2017-05-15T09:41:48.796Z,8.26
2017-05-15T09:44:16.319Z,8.70
2017-05-15T09:46:43.780Z,8.90
2017-05-15T09:49:10.817Z,7.00
2017-05-15T09:51:37.861Z,6.70
2017-05-15T09:54:05.896Z,7.56
2017-05-15T09:56:33.948Z,7.62
2017-05-15T09:59:00.978Z,7.46
2017-05-15T10:01:28.021Z,7.72
2017-05-15T10:03:55.102Z,8.28
2017-05-15T10:06:23.077Z,7.22
2017-05-15T10:08:50.506Z,6.70
2017-05-15T10:11:17.501Z,6.52
2017-05-15T10:13:44.559Z,7.12
2017-05-15T10:16:11.597Z,7.56
2017-05-15T10:18:38.596Z,7.34
2017-05-15T10:21:06.042Z,8.32
2017-05-15T10:23:33.159Z,7.80
2017-05-15T10:26:00.217Z,6.82
2017-05-15T10:28:27.275Z,7.72
2017-05-15T10:30:54.337Z,6.28
2017-05-15T10:33:22.515Z,6.46
2017-05-15T10:35:50.374Z,5.82
2017-05-15T10:38:17.412Z,7.38
2017-05-15T10:40:44.487Z,5.56
2017-05-15T10:43:12.241Z,6.62
2017-05-15T10:45:40.399Z,6.18
2017-05-15T10:48:07.435Z,6.12
2017-05-15T10:50:34.446Z,6.80
2017-05-15T10:53:01.501Z,6.08
2017-05-15T10:55:28.521Z,5.82
2017-05-15T10:57:56.050Z,5.60
2017-05-15T11:00:23.794Z,5.24
2017-05-15T11:02:50.807Z,5.32
2017-05-15T11:05:17.845Z,6.26
2017-05-15T11:07:44.864Z,5.28
2017-05-15T11:10:13.023Z,5.20
2017-05-15T11:12:40.799Z,4.94
2017-05-15T11:15:07.847Z,5.04
2017-05-15T11:17:35.175Z,3.78
2017-05-15T11:20:02.207Z,3.36
2017-05-15T11:22:29.297Z,3.20
2017-05-15T11:24:56.701Z,3.10
2017-05-15T11:27:23.745Z,2.80
2017-05-15T11:29:50.755Z,2.76
2017-05-15T11:32:17.807Z,2.98
2017-05-15T11:34:44.837Z,2.54
2017-05-15T11:37:12.987Z,2.64
2017-05-15T11:39:40.780Z,2.90
2017-05-15T11:42:07.991Z,3.72
2017-05-15T11:44:35.800Z,3.24
2017-05-15T11:47:02.832Z,3.08
2017-05-15T11:49:30.247Z,3.22
2017-05-15T11:51:59.061Z,4.08
2017-05-15T11:54:26.811Z,3.10
2017-05-15T11:56:53.861Z,2.72
2017-05-15T11:59:21.713Z,2.54
2017-05-15T12:01:49.062Z,2.58
2017-05-15T12:04:16.092Z,3.12
2017-05-15T12:06:43.113Z,3.88
2017-05-15T12:09:10.173Z,3.10
2017-05-15T12:11:44.085Z,2.50
2017-05-15T12:14:12.158Z,4.92
2017-05-15T12:16:39.161Z,5.04
2017-05-15T12:19:06.228Z,5.52
2017-05-15T12:21:33.296Z,4.90
2017-05-15T12:24:00.309Z,4.72
2017-05-15T12:26:27.697Z,3.54
2017-05-15T12:28:54.701Z,4.52
2017-05-15T12:31:21.747Z,4.18
2017-05-15T12:33:48.796Z,3.58
2017-05-15T12:36:15.885Z,3.34
2017-05-15T12:38:44.065Z,3.82
2017-05-15T12:41:11.090Z,4.36
2017-05-15T12:43:38.099Z,3.46
2017-05-15T12:46:05.173Z,4.10
2017-05-15T12:48:32.205Z,4.36
2017-05-15T12:50:59.597Z,2.92
2017-05-15T12:53:26.619Z,3.22
2017-05-15T12:55:53.667Z,3.30
2017-05-15T12:58:20.700Z,4.04
2017-05-15T13:00:47.797Z,5.66
2017-05-15T13:03:15.936Z,3.02
2017-05-15T13:05:42.979Z,2.62
2017-05-15T13:08:09.987Z,3.30
2017-05-15T13:10:37.027Z,3.48
2017-05-15T13:13:04.028Z,2.34
2017-05-15T13:15:31.595Z,3.34
2017-05-15T13:17:58.637Z,3.64
2017-05-15T13:20:26.413Z,4.72
2017-05-15T13:22:53.484Z,3.08
2017-05-15T13:25:20.540Z,4.44
2017-05-15T13:27:47.910Z,2.60
2017-05-15T13:30:14.958Z,3.38
2017-05-15T13:32:42.006Z,4.16
2017-05-15T13:35:09.105Z,2.68
2017-05-15T13:37:36.166Z,2.88
2017-05-15T13:40:03.584Z,2.44
2017-05-15T13:42:30.628Z,2.60
2017-05-15T13:44:58.437Z,2.58
2017-05-15T13:47:25.477Z,3.10
2017-05-15T13:49:53.312Z,2.26
2017-05-15T13:52:20.667Z,3.42
2017-05-15T13:54:48.368Z,2.80
2017-05-15T13:57:15.432Z,2.08
2017-05-15T13:59:42.479Z,3.72
2017-05-15T14:02:09.492Z,5.08
2017-05-15T14:04:36.880Z,2.58
2017-05-15T14:07:03.908Z,3.78
2017-05-15T14:09:30.964Z,2.30
2017-05-15T14:11:58.021Z,2.74
2017-05-15T14:14:25.080Z,2.36
2017-05-15T14:16:53.255Z,3.30
2017-05-15T14:19:21.050Z,2.72
2017-05-15T14:21:48.080Z,2.10
2017-05-15T14:24:15.721Z,2.86
2017-05-15T14:26:43.559Z,2.16
2017-05-15T14:29:11.045Z,2.92
2017-05-15T14:31:38.089Z,3.30
2017-05-15T14:34:05.888Z,2.78
2017-05-15T14:36:32.932Z,2.16
2017-05-15T14:38:59.968Z,2.56
2017-05-15T14:41:27.013Z,3.24
2017-05-15T14:43:54.434Z,3.20
2017-05-15T14:46:22.228Z,2.60
2017-05-15T14:48:49.264Z,3.20
2017-05-15T14:51:16.354Z,3.04
2017-05-15T14:53:43.395Z,2.36
2017-05-15T14:56:10.889Z,2.46
2017-05-15T14:58:37.936Z,2.18
2017-05-15T15:01:05.013Z,3.04
2017-05-15T15:03:32.061Z,3.44
2017-05-15T15:05:59.084Z,3.02
2017-05-15T15:08:26.433Z,3.04
2017-05-15T15:10:54.733Z,4.50
2017-05-15T15:13:21.769Z,3.60
2017-05-15T15:15:49.560Z,3.02
2017-05-15T15:18:16.640Z,3.78
2017-05-15T15:20:44.097Z,2.36
2017-05-15T15:23:11.897Z,3.04
2017-05-15T15:25:38.937Z,2.48
2017-05-15T15:28:06.072Z,2.10
2017-05-15T15:30:33.117Z,2.02
2017-05-15T15:33:00.563Z,2.28
2017-05-15T15:35:27.662Z,2.70
2017-05-15T15:37:55.488Z,2.52
2017-05-15T15:40:23.469Z,4.02
2017-05-15T15:42:50.543Z,2.20
2017-05-15T15:45:18.042Z,2.68
2017-05-15T15:47:45.492Z,2.18
2017-05-15T15:50:12.578Z,2.16
2017-05-15T15:52:39.612Z,1.74
2017-05-15T15:55:06.635Z,1.80
2017-05-15T15:57:34.081Z,2.30
2017-05-15T16:00:01.871Z,2.34
2017-05-15T16:02:28.917Z,3.54
2017-05-15T16:04:55.987Z,2.82
2017-05-15T16:07:23.067Z,2.30
2017-05-15T16:09:51.454Z,1.92
2017-05-15T16:12:18.455Z,2.08
2017-05-15T16:14:45.478Z,2.44
2017-05-15T16:17:12.553Z,2.78
2017-05-15T16:19:39.738Z,2.14
2017-05-15T16:22:06.992Z,1.76
2017-05-15T16:24:34.085Z,2.08
2017-05-15T16:27:01.504Z,3.00
2017-05-15T16:29:28.569Z,2.32
2017-05-15T16:31:55.614Z,1.92
2017-05-15T16:34:22.694Z,2.34
2017-05-15T16:36:49.768Z,1.54
2017-05-15T16:39:17.621Z,1.64
2017-05-15T16:41:44.614Z,2.42
2017-05-15T16:44:11.642Z,1.52
2017-05-15T16:46:39.473Z,1.50
2017-05-15T16:49:06.515Z,1.50
2017-05-15T16:51:33.577Z,1.90
2017-05-15T16:54:00.593Z,2.84
2017-05-15T16:56:28.059Z,1.62
2017-05-15T16:58:55.189Z,1.62
2017-05-15T17:01:22.198Z,3.20
2017-05-15T17:03:49.276Z,1.52
2017-05-15T17:06:16.355Z,7.84
2017-05-15T17:08:43.798Z,2.72
2017-05-15T17:11:10.845Z,3.16
2017-05-15T17:13:38.656Z,3.02
2017-05-15T17:16:05.700Z,3.52
2017-05-15T17:18:33.473Z,2.28
2017-05-15T17:21:00.880Z,3.88
2017-05-15T17:23:27.896Z,2.98
2017-05-15T17:25:54.924Z,2.44
2017-05-15T17:28:21.965Z,2.48
2017-05-15T17:30:49.060Z,2.40
2017-05-15T17:33:16.445Z,2.88
2017-05-15T17:35:43.465Z,2.96
2017-05-15T17:38:10.533Z,4.22
2017-05-15T17:40:37.618Z,2.74
2017-05-15T17:43:04.645Z,3.32
2017-05-15T17:45:32.020Z,2.86
2017-05-15T17:47:59.035Z,4.78
2017-05-15T17:50:26.053Z,2.68
2017-05-15T17:52:53.503Z,3.02
2017-05-15T17:55:20.534Z,2.94
2017-05-15T17:57:47.562Z,3.52
2017-05-15T18:00:14.633Z,3.10
2017-05-15T18:02:42.378Z,2.48
2017-05-15T18:05:10.706Z,4.38
2017-05-15T18:07:37.815Z,4.62
2017-05-15T18:10:05.745Z,3.62
2017-05-15T18:12:32.967Z,4.54
2017-05-15T18:15:09.057Z,2.74
2017-05-15T18:17:36.518Z,3.22
2017-05-15T18:20:03.562Z,3.26
2017-05-15T18:22:31.129Z,2.72
2017-05-15T18:24:58.600Z,2.88
2017-05-15T18:27:25.708Z,2.84
2017-05-15T18:29:52.760Z,2.68
2017-05-15T18:32:20.256Z,3.22
2017-05-15T18:34:48.027Z,2.94
2017-05-15T18:37:15.801Z,2.72
2017-05-15T18:39:43.224Z,2.68
2017-05-15T18:42:10.329Z,2.62
2017-05-15T18:44:37.403Z,3.44
2017-05-15T18:47:04.799Z,3.60
2017-05-15T18:49:31.911Z,4.06
2017-05-15T18:51:59.115Z,2.98
2017-05-15T18:54:26.540Z,2.20
2017-05-15T18:56:53.584Z,3.26
2017-05-15T18:59:21.357Z,3.82
2017-05-15T19:01:49.485Z,3.14
2017-05-15T19:04:17.297Z,2.38
2017-05-15T19:06:44.346Z,3.64
2017-05-15T19:09:11.876Z,3.32
2017-05-15T19:11:38.881Z,2.54
2017-05-15T19:14:05.939Z,2.72
2017-05-15T19:16:33.310Z,2.26
2017-05-15T19:19:00.291Z,4.38
2017-05-15T19:21:27.341Z,2.34
2017-05-15T19:23:54.777Z,2.70
2017-05-15T19:26:21.905Z,3.28
2017-05-15T19:28:48.969Z,2.80
2017-05-15T19:31:16.332Z,3.04
2017-05-15T19:33:44.144Z,2.56
2017-05-15T19:36:11.149Z,2.40
2017-05-15T19:38:38.606Z,2.74
2017-05-15T19:41:05.700Z,2.70
2017-05-15T19:43:32.752Z,2.58
2017-05-15T19:46:00.142Z,2.24
2017-05-15T19:48:27.179Z,4.44
2017-05-15T19:50:54.204Z,2.78
2017-05-15T19:53:21.692Z,2.68
2017-05-15T19:55:48.705Z,2.50
2017-05-15T19:58:15.712Z,2.52
2017-05-15T20:00:43.042Z,3.24
2017-05-15T20:03:10.820Z,2.68
2017-05-15T20:05:38.581Z,2.32
2017-05-15T20:08:06.754Z,2.00
2017-05-15T20:10:34.506Z,2.38
2017-05-15T20:13:01.529Z,2.44
2017-05-15T20:15:30.144Z,2.98
2017-05-15T20:17:57.129Z,3.70
2017-05-15T20:20:24.108Z,3.52
2017-05-15T20:22:51.468Z,3.48
2017-05-15T20:25:18.461Z,2.74
2017-05-15T20:27:46.224Z,4.00
2017-05-15T20:30:14.367Z,2.40
2017-05-15T20:32:41.405Z,3.46
2017-05-15T20:35:08.432Z,1.84
2017-05-15T20:37:35.825Z,2.32
2017-05-15T20:40:02.850Z,2.58
2017-05-15T20:42:29.821Z,2.92
2017-05-15T20:44:57.165Z,2.32
2017-05-15T20:47:24.169Z,4.36
2017-05-15T20:49:51.365Z,4.48
2017-05-15T20:52:18.727Z,3.22
2017-05-15T20:54:45.759Z,2.66
2017-05-15T20:57:12.798Z,2.30
2017-05-15T20:59:40.177Z,2.30
2017-05-15T21:02:07.204Z,2.50
2017-05-15T21:04:34.295Z,4.56
2017-05-15T21:07:02.369Z,2.40
2017-05-15T21:09:29.371Z,2.74
2017-05-15T21:11:56.368Z,2.86
2017-05-15T21:14:24.496Z,3.50
2017-05-15T21:16:51.498Z,3.02
2017-05-15T21:19:18.509Z,2.66
2017-05-15T21:21:46.053Z,2.50
2017-05-15T21:24:13.079Z,2.68
2017-05-15T21:26:40.120Z,2.82
2017-05-15T21:29:07.527Z,2.38
2017-05-15T21:31:35.309Z,2.40
2017-05-15T21:34:03.061Z,3.58
2017-05-15T21:36:30.497Z,2.46
2017-05-15T21:38:57.513Z,2.84
2017-05-15T21:41:24.890Z,2.58
2017-05-15T21:43:52.333Z,3.34
2017-05-15T21:46:19.372Z,4.30
2017-05-15T21:48:46.397Z,3.66
2017-05-15T21:51:13.828Z,2.90
2017-05-15T21:53:40.883Z,2.68
2017-05-15T21:56:08.596Z,4.02
2017-05-15T21:58:35.929Z,2.84
2017-05-15T22:01:02.941Z,3.72
2017-05-15T22:03:29.952Z,3.36
2017-05-15T22:05:57.340Z,3.22
2017-05-15T22:08:24.327Z,2.56
2017-05-15T22:10:51.332Z,2.50
2017-05-15T22:13:18.649Z,2.52
2017-05-15T22:15:45.663Z,2.66
2017-05-15T22:18:12.698Z,2.80
2017-05-15T22:20:40.837Z,2.74
2017-05-15T22:23:07.849Z,4.22
2017-05-15T22:25:34.884Z,2.68
2017-05-15T22:28:02.311Z,3.20
2017-05-15T22:30:30.159Z,2.76
2017-05-15T22:32:57.191Z,3.18
2017-05-15T22:35:24.555Z,3.04
2017-05-15T22:37:51.552Z,3.16
2017-05-15T22:40:19.296Z,2.70
2017-05-15T22:42:47.468Z,3.54
2017-05-15T22:45:14.468Z,2.78
2017-05-15T22:47:41.439Z,3.26
2017-05-15T22:50:08.889Z,3.94
2017-05-15T22:52:35.918Z,2.92
2017-05-15T22:55:03.012Z,3.40
2017-05-15T22:57:30.480Z,4.28
2017-05-15T22:59:58.231Z,3.42
2017-05-15T23:02:25.253Z,2.96
2017-05-15T23:04:52.605Z,4.34
2017-05-15T23:07:19.681Z,4.16
2017-05-15T23:09:46.708Z,3.20
2017-05-15T23:12:14.067Z,3.86
2017-05-15T23:14:41.079Z,3.78
2017-05-15T23:17:08.068Z,7.62
2017-05-15T23:19:35.406Z,3.00
2017-05-15T23:22:02.584Z,4.46
2017-05-15T23:24:29.599Z,5.46
2017-05-15T23:26:56.966Z,4.98
2017-05-15T23:29:23.962Z,3.18
2017-05-15T23:31:50.958Z,3.52
2017-05-15T23:34:18.333Z,3.38
2017-05-15T23:36:45.320Z,3.38
2017-05-15T23:39:12.329Z,3.10
2017-05-15T23:41:39.801Z,3.10
2017-05-15T23:44:07.540Z,4.40
2017-05-15T23:46:34.544Z,3.28
2017-05-15T23:49:01.956Z,3.80
2017-05-15T23:51:28.972Z,3.46
2017-05-15T23:53:55.977Z,2.96
2017-05-15T23:56:23.390Z,2.92
2017-05-15T23:58:50.415Z,3.32
